createdAt,value
2022-12-25T00:00:18.379Z,8.30
2022-12-25T00:02:22.171Z,8.30
2022-12-25T00:04:23.745Z,8.30
2022-12-25T00:06:25.993Z,8.30
2022-12-25T00:08:27.637Z,8.30
2022-12-25T00:10:29.282Z,8.30
2022-12-25T00:12:30.912Z,8.30
2022-12-25T00:14:34.332Z,8.30
2022-12-25T00:16:35.985Z,8.30
2022-12-25T00:18:37.686Z,8.30
2022-12-25T00:20:39.276Z,8.30
2022-12-25T00:22:40.927Z,8.30
2022-12-25T00:24:42.546Z,8.30
2022-12-25T00:26:44.220Z,8.30
2022-12-25T00:28:45.940Z,8.30
2022-12-25T00:30:47.660Z,8.30
2022-12-25T00:32:49.323Z,8.30
2022-12-25T00:34:50.980Z,8.30
2022-12-25T00:36:52.990Z,8.30
2022-12-25T00:38:54.705Z,8.30
2022-12-25T00:40:56.372Z,8.30
2022-12-25T00:42:58.463Z,8.30
2022-12-25T00:45:01.617Z,8.40
2022-12-25T00:47:03.423Z,8.40
2022-12-25T00:49:05.537Z,8.40
2022-12-25T00:51:08.980Z,8.30
2022-12-25T00:53:10.528Z,8.30
2022-12-25T00:55:12.130Z,8.30
2022-12-25T00:57:13.774Z,8.30
2022-12-25T00:59:15.448Z,8.30
2022-12-25T01:01:17.185Z,8.30
2022-12-25T01:03:18.989Z,8.30
2022-12-25T01:05:20.719Z,8.40
2022-12-25T01:07:23.697Z,8.40
2022-12-25T01:09:43.771Z,8.40
2022-12-25T01:11:45.596Z,8.40
2022-12-25T01:13:47.182Z,8.40
2022-12-25T01:15:49.144Z,8.40
2022-12-25T01:17:50.811Z,8.40
2022-12-25T01:19:52.469Z,8.40
2022-12-25T01:21:54.088Z,8.40
2022-12-25T01:23:56.013Z,8.50
2022-12-25T01:26:02.911Z,8.40
2022-12-25T01:28:04.609Z,8.40
2022-12-25T01:30:07.063Z,8.50
2022-12-25T01:32:08.876Z,8.50
2022-12-25T01:34:10.701Z,8.40
2022-12-25T01:36:19.306Z,8.40
2022-12-25T01:38:21.469Z,8.40
2022-12-25T01:40:23.122Z,8.50
2022-12-25T01:42:24.842Z,8.40
2022-12-25T01:44:35.574Z,8.40
2022-12-25T01:46:37.294Z,8.40
2022-12-25T01:48:39.292Z,8.40
2022-12-25T01:50:42.118Z,8.40
2022-12-25T01:52:44.131Z,8.40
2022-12-25T01:54:52.202Z,8.50
2022-12-25T01:56:55.351Z,8.50
2022-12-25T01:58:57.265Z,8.50
2022-12-25T02:00:59.036Z,8.50
2022-12-25T02:03:00.842Z,8.50
2022-12-25T02:05:12.629Z,8.50
2022-12-25T02:07:18.276Z,8.50
2022-12-25T02:09:19.834Z,8.50
2022-12-25T02:11:39.949Z,8.50
2022-12-25T02:13:41.557Z,8.50
2022-12-25T02:15:50.975Z,8.50
2022-12-25T02:18:04.972Z,8.50
2022-12-25T02:20:25.250Z,8.50
2022-12-25T02:22:26.776Z,8.50
2022-12-25T02:24:41.381Z,8.50
2022-12-25T02:26:55.264Z,8.50
2022-12-25T02:29:06.846Z,8.50
2022-12-25T02:31:15.033Z,8.50
2022-12-25T02:33:38.205Z,8.50
2022-12-25T02:35:40.421Z,8.50
2022-12-25T02:37:45.406Z,8.50
2022-12-25T02:40:09.191Z,8.50
2022-12-25T02:42:13.586Z,8.50
2022-12-25T02:44:36.874Z,8.50
2022-12-25T02:46:57.598Z,8.50
2022-12-25T02:49:19.698Z,8.60
2022-12-25T02:51:42.165Z,8.50
2022-12-25T02:54:04.183Z,8.50
2022-12-25T02:56:24.482Z,8.50
2022-12-25T02:58:45.187Z,8.50
2022-12-25T03:01:10.893Z,8.50
2022-12-25T03:03:32.941Z,8.60
2022-12-25T03:05:54.942Z,8.50
2022-12-25T03:07:58.184Z,8.50
2022-12-25T03:10:21.789Z,8.50
2022-12-25T03:12:45.203Z,8.50
2022-12-25T03:15:05.775Z,8.50
2022-12-25T03:17:07.680Z,8.50
2022-12-25T03:19:28.235Z,8.50
2022-12-25T03:21:48.755Z,8.50
2022-12-25T03:24:13.197Z,8.50
2022-12-25T03:26:34.876Z,8.50
2022-12-25T03:28:36.655Z,8.50
2022-12-25T03:31:09.414Z,8.50
2022-12-25T03:33:44.004Z,8.50
2022-12-25T03:35:47.754Z,8.60
2022-12-25T03:38:20.256Z,8.50
2022-12-25T03:40:40.551Z,8.50
2022-12-25T03:43:03.670Z,8.50
2022-12-25T03:45:29.885Z,8.40
2022-12-25T03:47:56.057Z,8.50
2022-12-25T03:50:36.287Z,8.50
2022-12-25T03:52:57.787Z,8.50
2022-12-25T03:55:20.183Z,8.50
2022-12-25T03:57:40.368Z,8.50
2022-12-25T04:00:00.610Z,8.40
2022-12-25T04:02:20.754Z,8.40
2022-12-25T04:04:41.149Z,8.40
2022-12-25T04:07:01.856Z,8.40
2022-12-25T04:09:22.037Z,8.40
2022-12-25T04:11:42.060Z,8.40
2022-12-25T04:14:02.224Z,8.40
2022-12-25T04:16:22.962Z,8.30
2022-12-25T04:18:43.414Z,8.30
2022-12-25T04:21:03.772Z,8.30
2022-12-25T04:23:23.893Z,8.30
2022-12-25T04:25:44.197Z,8.20
2022-12-25T04:28:04.685Z,8.30
2022-12-25T04:30:25.001Z,8.20
2022-12-25T04:32:45.289Z,8.20
2022-12-25T04:35:05.356Z,8.20
2022-12-25T04:37:07.007Z,8.20
2022-12-25T04:39:09.381Z,8.10
2022-12-25T04:41:11.820Z,8.10
2022-12-25T04:43:13.477Z,8.20
2022-12-25T04:45:15.260Z,8.20
2022-12-25T04:47:16.886Z,8.20
2022-12-25T04:49:18.635Z,8.20
2022-12-25T04:51:21.700Z,8.20
2022-12-25T04:53:23.451Z,8.20
2022-12-25T04:55:25.081Z,8.20
2022-12-25T04:57:26.751Z,8.20
2022-12-25T04:59:28.317Z,8.20
2022-12-25T05:01:30.172Z,8.20
2022-12-25T05:03:32.389Z,8.20
2022-12-25T05:05:34.016Z,8.20
2022-12-25T05:07:35.647Z,8.20
2022-12-25T05:09:41.632Z,8.20
2022-12-25T05:11:43.259Z,8.20
2022-12-25T05:13:45.012Z,8.20
2022-12-25T05:15:47.949Z,8.10
2022-12-25T05:17:50.574Z,8.10
2022-12-25T05:19:52.175Z,8.10
2022-12-25T05:21:54.320Z,8.10
2022-12-25T05:23:56.093Z,8.20
2022-12-25T05:25:58.025Z,8.20
2022-12-25T05:27:59.685Z,8.20
2022-12-25T05:30:01.384Z,8.20
2022-12-25T05:32:03.180Z,8.20
2022-12-25T05:34:04.730Z,8.20
2022-12-25T05:36:07.637Z,8.20
2022-12-25T05:38:09.247Z,8.30
2022-12-25T05:40:11.187Z,8.30
2022-12-25T05:42:12.804Z,8.20
2022-12-25T05:44:14.490Z,8.20
2022-12-25T05:46:16.403Z,8.20
2022-12-25T05:48:18.102Z,8.20
2022-12-25T05:50:19.737Z,8.20
2022-12-25T05:52:21.361Z,8.20
2022-12-25T05:54:22.914Z,8.20
2022-12-25T05:56:24.602Z,8.20
2022-12-25T05:58:26.199Z,8.20
2022-12-25T06:00:28.315Z,8.20
2022-12-25T06:02:30.148Z,8.20
2022-12-25T06:04:31.879Z,8.20
2022-12-25T06:06:33.556Z,8.20
2022-12-25T06:08:35.340Z,8.20
2022-12-25T06:10:36.924Z,8.20
2022-12-25T06:12:38.518Z,8.20
2022-12-25T06:14:40.152Z,8.20
2022-12-25T06:16:42.320Z,8.20
2022-12-25T06:18:45.167Z,8.20
2022-12-25T06:20:46.732Z,8.20
2022-12-25T06:22:48.362Z,8.20
2022-12-25T06:24:50.132Z,8.20
2022-12-25T06:26:51.868Z,8.20
2022-12-25T06:28:53.503Z,8.30
2022-12-25T06:30:55.074Z,8.20
2022-12-25T06:32:56.736Z,8.20
2022-12-25T06:34:58.295Z,8.20
2022-12-25T06:37:00.106Z,8.20
2022-12-25T06:39:02.061Z,8.20
2022-12-25T06:41:05.064Z,8.20
2022-12-25T06:43:06.707Z,8.20
2022-12-25T06:45:08.640Z,8.20
2022-12-25T06:47:10.248Z,8.20
2022-12-25T06:49:11.898Z,8.20
2022-12-25T06:51:13.643Z,8.20
2022-12-25T06:53:15.217Z,8.20
2022-12-25T06:55:16.801Z,8.20
2022-12-25T06:57:18.947Z,8.20
2022-12-25T06:59:20.646Z,8.20
2022-12-25T07:01:27.629Z,8.20
2022-12-25T07:03:30.061Z,8.20
2022-12-25T07:05:31.791Z,8.20
2022-12-25T07:07:33.463Z,8.20
2022-12-25T07:09:35.627Z,8.30
2022-12-25T07:11:37.311Z,8.20
2022-12-25T07:13:38.910Z,8.30
2022-12-25T07:15:41.652Z,8.30
2022-12-25T07:17:43.655Z,8.20
2022-12-25T07:19:48.624Z,8.30
2022-12-25T07:21:50.300Z,8.30
2022-12-25T07:23:52.054Z,8.30
2022-12-25T07:25:59.077Z,8.30
2022-12-25T07:28:00.692Z,8.30
2022-12-25T07:30:02.327Z,8.20
2022-12-25T07:32:04.113Z,8.30
2022-12-25T07:34:05.758Z,8.30
2022-12-25T07:36:07.903Z,8.30
2022-12-25T07:38:14.445Z,8.30
2022-12-25T07:40:16.109Z,8.30
2022-12-25T07:42:21.815Z,8.30
2022-12-25T07:44:26.658Z,8.30
2022-12-25T07:46:29.407Z,8.30
2022-12-25T07:48:31.019Z,8.30
2022-12-25T07:50:32.655Z,8.30
2022-12-25T07:52:39.483Z,8.40
2022-12-25T07:54:44.689Z,8.40
2022-12-25T07:56:46.519Z,8.40
2022-12-25T07:58:48.682Z,8.40
2022-12-25T08:00:50.449Z,8.40
2022-12-25T08:02:52.380Z,8.50
2022-12-25T08:04:54.920Z,8.50
2022-12-25T08:06:56.631Z,8.50
2022-12-25T08:09:01.869Z,8.50
2022-12-25T08:11:03.421Z,8.50
2022-12-25T08:13:10.852Z,8.60
2022-12-25T08:15:15.814Z,8.60
2022-12-25T08:17:17.526Z,8.60
2022-12-25T08:19:19.211Z,8.60
2022-12-25T08:21:20.933Z,8.60
2022-12-25T08:23:22.674Z,8.50
2022-12-25T08:25:25.548Z,8.50
2022-12-25T08:27:28.250Z,8.50
2022-12-25T08:29:30.200Z,8.50
2022-12-25T08:31:34.201Z,8.50
2022-12-25T08:33:36.566Z,8.50
2022-12-25T08:35:38.258Z,8.50
2022-12-25T08:37:40.991Z,8.60
2022-12-25T08:39:42.732Z,8.60
2022-12-25T08:41:44.401Z,8.60
2022-12-25T08:43:46.326Z,8.60
2022-12-25T08:45:48.007Z,8.60
2022-12-25T08:47:53.998Z,8.70
2022-12-25T08:49:55.850Z,8.70
2022-12-25T08:51:57.623Z,8.70
2022-12-25T08:54:00.230Z,8.70
2022-12-25T08:56:08.854Z,8.70
2022-12-25T08:58:10.797Z,8.70
2022-12-25T09:00:12.705Z,8.70
2022-12-25T09:02:14.887Z,8.80
2022-12-25T09:04:16.652Z,8.80
2022-12-25T09:06:18.353Z,8.90
2022-12-25T09:08:22.025Z,8.90
2022-12-25T09:10:25.247Z,9.00
2022-12-25T09:12:29.576Z,9.00
2022-12-25T09:14:31.677Z,9.00
2022-12-25T09:16:33.373Z,9.00
2022-12-25T09:18:35.354Z,9.00
2022-12-25T09:20:37.071Z,9.20
2022-12-25T09:22:38.740Z,9.30
2022-12-25T09:24:40.693Z,9.40
2022-12-25T09:26:42.535Z,9.50
2022-12-25T09:28:50.784Z,9.60
2022-12-25T09:30:53.551Z,9.60
2022-12-25T09:32:55.218Z,9.80
2022-12-25T09:34:56.936Z,9.90
2022-12-25T09:36:59.673Z,9.90
2022-12-25T09:39:04.365Z,10.00
2022-12-25T09:41:09.006Z,10.00
2022-12-25T09:43:12.350Z,9.90
2022-12-25T09:45:24.566Z,9.90
2022-12-25T09:47:28.554Z,9.90
2022-12-25T09:49:38.441Z,10.00
2022-12-25T09:51:42.245Z,10.10
2022-12-25T09:53:47.806Z,10.00
2022-12-25T09:56:09.732Z,10.10
2022-12-25T09:58:15.167Z,10.10
2022-12-25T10:00:21.720Z,10.10
2022-12-25T10:02:32.599Z,10.30
2022-12-25T10:04:41.081Z,10.40
2022-12-25T10:06:54.408Z,10.80
2022-12-25T10:09:13.260Z,11.00
2022-12-25T10:11:14.793Z,10.90
2022-12-25T10:13:38.252Z,11.10
2022-12-25T10:15:59.387Z,11.20
2022-12-25T10:18:13.235Z,11.40
2022-12-25T10:20:21.118Z,11.30
2022-12-25T10:22:34.964Z,11.70
2022-12-25T10:24:39.792Z,11.90
2022-12-25T10:26:41.432Z,12.00
2022-12-25T10:28:44.507Z,12.20
2022-12-25T10:30:46.233Z,12.40
2022-12-25T10:32:48.561Z,12.40
2022-12-25T10:34:50.535Z,12.50
2022-12-25T10:36:52.124Z,12.60
2022-12-25T10:38:54.163Z,12.60
2022-12-25T10:41:19.658Z,12.60
2022-12-25T10:43:23.971Z,12.70
2022-12-25T10:45:25.670Z,12.80
2022-12-25T10:47:50.031Z,12.80
2022-12-25T10:49:54.752Z,12.90
2022-12-25T10:51:56.608Z,13.10
2022-12-25T10:54:01.353Z,13.10
2022-12-25T10:56:04.286Z,13.10
2022-12-25T10:58:05.855Z,13.10
2022-12-25T11:00:19.468Z,13.10
2022-12-25T11:02:31.589Z,13.00
2022-12-25T11:04:34.838Z,13.00
2022-12-25T11:06:36.493Z,12.90
2022-12-25T11:08:38.132Z,13.00
2022-12-25T11:10:43.798Z,12.90
2022-12-25T11:12:45.932Z,12.90
2022-12-25T11:14:54.651Z,12.80
2022-12-25T11:17:16.940Z,12.60
2022-12-25T11:19:24.371Z,12.60
2022-12-25T11:21:25.999Z,12.60
2022-12-25T11:23:29.738Z,12.50
2022-12-25T11:25:31.366Z,12.70
2022-12-25T11:27:33.604Z,12.90
2022-12-25T11:29:37.528Z,13.30
2022-12-25T11:31:40.599Z,13.40
2022-12-25T11:33:45.952Z,13.40
2022-12-25T11:35:49.747Z,13.40
2022-12-25T11:37:52.358Z,13.40
2022-12-25T11:39:54.104Z,13.50
2022-12-25T11:42:05.510Z,13.70
2022-12-25T11:44:16.168Z,14.00
2022-12-25T11:46:23.749Z,14.30
2022-12-25T11:48:29.484Z,14.40
2022-12-25T11:50:39.421Z,14.40
2022-12-25T11:52:42.474Z,14.40
2022-12-25T11:54:50.245Z,14.50
2022-12-25T11:56:52.249Z,14.50
2022-12-25T11:59:00.519Z,14.60
2022-12-25T12:01:04.916Z,14.70
2022-12-25T12:03:13.708Z,14.60
2022-12-25T12:05:37.371Z,14.70
2022-12-25T12:07:48.369Z,14.60
2022-12-25T12:10:12.736Z,14.50
2022-12-25T12:12:40.659Z,14.70
2022-12-25T12:14:53.624Z,15.00
2022-12-25T12:16:55.341Z,15.50
2022-12-25T12:18:57.208Z,15.50
2022-12-25T12:21:17.497Z,15.70
2022-12-25T12:23:19.198Z,15.80
2022-12-25T12:25:21.320Z,15.80
2022-12-25T12:27:23.194Z,15.80
2022-12-25T12:29:40.430Z,16.00
2022-12-25T12:31:45.820Z,16.00
2022-12-25T12:33:52.543Z,16.30
2022-12-25T12:35:54.163Z,16.40
2022-12-25T12:37:59.402Z,16.40
2022-12-25T12:40:01.285Z,16.20
2022-12-25T12:42:11.359Z,16.00
2022-12-25T12:44:13.481Z,15.90
2022-12-25T12:46:29.765Z,15.90
2022-12-25T12:48:38.724Z,15.90
2022-12-25T12:50:41.208Z,15.90
2022-12-25T12:52:42.944Z,16.40
2022-12-25T12:55:04.863Z,16.90
2022-12-25T12:57:21.615Z,17.30
2022-12-25T12:59:24.085Z,17.40
2022-12-25T13:01:44.607Z,17.30
2022-12-25T13:03:49.070Z,17.30
2022-12-25T13:05:54.404Z,17.20
2022-12-25T13:07:59.206Z,17.30
2022-12-25T13:10:03.991Z,17.40
2022-12-25T13:12:07.666Z,17.40
2022-12-25T13:14:14.585Z,17.50
2022-12-25T13:16:22.672Z,17.70
2022-12-25T13:18:24.457Z,18.10
2022-12-25T13:20:44.883Z,18.80
2022-12-25T13:22:52.401Z,19.30
2022-12-25T13:24:55.875Z,19.10
2022-12-25T13:26:58.188Z,19.10
2022-12-25T13:28:59.838Z,19.30
2022-12-25T13:31:13.994Z,19.70
2022-12-25T13:33:18.427Z,19.90
2022-12-25T13:35:21.148Z,19.30
2022-12-25T13:37:24.340Z,18.40
2022-12-25T13:39:26.706Z,17.80
2022-12-25T13:41:55.172Z,17.90
2022-12-25T13:43:58.289Z,17.80
2022-12-25T13:45:59.981Z,17.60
2022-12-25T13:48:23.266Z,17.00
2022-12-25T13:50:29.881Z,17.00
2022-12-25T13:52:36.617Z,16.50
2022-12-25T13:54:38.241Z,16.40
2022-12-25T13:56:48.065Z,16.60
2022-12-25T13:58:50.231Z,16.80
2022-12-25T14:00:55.666Z,16.70
2022-12-25T14:02:58.390Z,16.40
2022-12-25T14:05:00.251Z,16.20
2022-12-25T14:07:09.327Z,16.20
2022-12-25T14:09:11.870Z,16.00
2022-12-25T14:11:15.216Z,15.90
2022-12-25T14:13:18.152Z,15.80
2022-12-25T14:15:21.440Z,15.60
2022-12-25T14:17:23.289Z,15.40
2022-12-25T14:19:24.897Z,15.00
2022-12-25T14:21:29.696Z,14.90
2022-12-25T14:23:48.826Z,14.90
2022-12-25T14:25:51.051Z,14.70
2022-12-25T14:27:52.729Z,14.30
2022-12-25T14:29:55.877Z,14.00
2022-12-25T14:31:58.830Z,13.90
2022-12-25T14:34:01.395Z,13.70
2022-12-25T14:36:03.114Z,13.50
2022-12-25T14:38:05.886Z,13.50
2022-12-25T14:40:21.994Z,13.30
2022-12-25T14:42:25.236Z,13.20
2022-12-25T14:44:39.894Z,13.10
2022-12-25T14:46:41.641Z,13.10
2022-12-25T14:48:43.495Z,12.90
2022-12-25T14:50:52.191Z,12.80
2022-12-25T14:52:55.395Z,12.80
2022-12-25T14:54:56.944Z,12.70
2022-12-25T14:56:58.565Z,12.60
2022-12-25T14:59:00.223Z,12.60
2022-12-25T15:01:04.512Z,12.50
2022-12-25T15:03:18.558Z,12.40
2022-12-25T15:05:26.167Z,12.30
2022-12-25T15:07:29.335Z,12.20
2022-12-25T15:09:31.141Z,12.10
2022-12-25T15:11:33.063Z,12.00
2022-12-25T15:13:34.726Z,12.00
2022-12-25T15:15:36.457Z,11.90
2022-12-25T15:17:38.155Z,11.80
2022-12-25T15:19:39.985Z,11.70
2022-12-25T15:21:41.612Z,11.70
2022-12-25T15:23:44.101Z,11.60
2022-12-25T15:25:47.268Z,11.60
2022-12-25T15:27:49.111Z,11.50
2022-12-25T15:32:17.366Z,11.40
2022-12-25T15:34:20.855Z,11.40
2022-12-25T15:36:22.969Z,11.30
2022-12-25T15:38:24.663Z,11.30
2022-12-25T15:40:26.276Z,11.30
2022-12-25T15:42:27.909Z,11.20
2022-12-25T15:44:29.599Z,11.20
2022-12-25T15:46:32.033Z,11.20
2022-12-25T15:48:33.681Z,11.10
2022-12-25T15:50:36.712Z,11.10
2022-12-25T15:52:38.345Z,11.10
2022-12-25T15:54:39.973Z,11.10
2022-12-25T15:56:46.610Z,11.10
2022-12-25T15:58:48.315Z,11.10
2022-12-25T16:00:51.068Z,11.00
2022-12-25T16:02:53.484Z,11.00
2022-12-25T16:04:55.274Z,10.90
2022-12-25T16:06:57.036Z,10.90
2022-12-25T16:08:58.621Z,10.90
2022-12-25T16:11:00.200Z,10.80
2022-12-25T16:13:02.615Z,10.80
2022-12-25T16:15:04.713Z,10.80
2022-12-25T16:17:06.414Z,10.70
2022-12-25T16:19:08.373Z,10.80
2022-12-25T16:21:13.360Z,10.70
2022-12-25T16:23:14.935Z,10.70
2022-12-25T16:25:18.294Z,10.60
2022-12-25T16:27:20.351Z,10.60
2022-12-25T16:29:21.991Z,10.50
2022-12-25T16:31:23.565Z,10.50
2022-12-25T16:33:26.192Z,10.50
2022-12-25T16:35:27.821Z,10.50
2022-12-25T16:37:30.482Z,10.50
2022-12-25T16:39:32.595Z,10.40
2022-12-25T16:41:34.259Z,10.50
2022-12-25T16:43:35.867Z,10.50
2022-12-25T16:45:38.406Z,10.40
2022-12-25T16:47:40.035Z,10.40
2022-12-25T16:49:45.120Z,10.30
2022-12-25T16:51:46.743Z,10.30
2022-12-25T16:53:48.391Z,10.30
2022-12-25T16:55:50.033Z,10.20
2022-12-25T16:57:51.671Z,10.30
2022-12-25T16:59:53.370Z,10.20
2022-12-25T17:01:55.033Z,10.20
2022-12-25T17:04:01.427Z,10.20
2022-12-25T17:06:03.939Z,10.20
2022-12-25T17:08:05.603Z,10.10
2022-12-25T17:10:07.534Z,10.00
2022-12-25T17:12:09.498Z,10.00
2022-12-25T17:14:11.073Z,9.90
2022-12-25T17:16:16.441Z,9.90
2022-12-25T17:18:21.763Z,9.90
2022-12-25T17:20:23.385Z,9.90
2022-12-25T17:22:25.014Z,9.80
2022-12-25T17:24:27.146Z,9.80
2022-12-25T17:26:28.935Z,9.70
2022-12-25T17:28:30.641Z,9.70
2022-12-25T17:30:33.306Z,9.70
2022-12-25T17:32:35.195Z,9.70
2022-12-25T17:34:37.125Z,9.70
2022-12-25T17:36:38.713Z,9.70
2022-12-25T17:38:40.331Z,9.70
2022-12-25T17:40:41.993Z,9.70
2022-12-25T17:42:43.725Z,9.70
2022-12-25T17:44:46.108Z,9.70
2022-12-25T17:46:48.987Z,9.80
2022-12-25T17:48:51.489Z,9.70
2022-12-25T17:50:53.159Z,9.60
2022-12-25T17:52:54.845Z,9.60
2022-12-25T17:54:56.430Z,9.50
2022-12-25T17:56:58.064Z,9.50
2022-12-25T17:59:00.532Z,9.50
2022-12-25T18:01:15.800Z,9.50
2022-12-25T18:03:17.880Z,9.50
2022-12-25T18:05:19.544Z,9.50
2022-12-25T18:07:21.115Z,9.50
2022-12-25T18:09:22.743Z,9.50
2022-12-25T18:11:27.567Z,9.50
2022-12-25T18:13:29.821Z,9.50
2022-12-25T18:15:31.700Z,9.50
2022-12-25T18:17:33.515Z,9.40
2022-12-25T18:19:36.209Z,9.40
2022-12-25T18:21:38.060Z,9.40
2022-12-25T18:23:39.710Z,9.40
2022-12-25T18:25:42.799Z,9.30
2022-12-25T18:27:44.458Z,9.30
2022-12-25T18:29:46.252Z,9.30
2022-12-25T18:31:48.049Z,9.30
2022-12-25T18:33:49.894Z,9.30
2022-12-25T18:35:56.567Z,9.30
2022-12-25T18:38:00.642Z,9.30
2022-12-25T18:40:02.752Z,9.30
2022-12-25T18:42:23.183Z,9.30
2022-12-25T18:44:24.825Z,9.30
2022-12-25T18:46:27.864Z,9.30
2022-12-25T18:48:29.997Z,9.30
2022-12-25T18:50:34.826Z,9.30
2022-12-25T18:52:47.895Z,9.30
2022-12-25T18:54:52.047Z,9.30
2022-12-25T18:56:54.177Z,9.30
2022-12-25T18:58:55.730Z,9.30
2022-12-25T19:00:57.393Z,9.30
2022-12-25T19:02:59.566Z,9.30
2022-12-25T19:05:01.559Z,9.30
2022-12-25T19:07:03.205Z,9.30
2022-12-25T19:09:09.237Z,9.30
2022-12-25T19:11:11.057Z,9.30
2022-12-25T19:13:12.680Z,9.40
2022-12-25T19:15:14.299Z,9.30
2022-12-25T19:17:16.999Z,9.30
2022-12-25T19:19:18.822Z,9.30
2022-12-25T19:21:20.403Z,9.30
2022-12-25T19:23:22.041Z,9.30
2022-12-25T19:25:23.685Z,9.30
2022-12-25T19:27:25.402Z,9.30
2022-12-25T19:29:27.033Z,9.20
2022-12-25T19:31:28.668Z,9.20
2022-12-25T19:33:31.086Z,9.20
2022-12-25T19:35:32.859Z,9.30
2022-12-25T19:37:34.622Z,9.20
2022-12-25T19:39:36.198Z,9.30
2022-12-25T19:41:37.992Z,9.20
2022-12-25T19:43:40.464Z,9.30
2022-12-25T19:45:42.061Z,9.20
2022-12-25T19:47:44.369Z,9.20
2022-12-25T19:49:50.966Z,9.20
2022-12-25T19:51:54.565Z,9.20
2022-12-25T19:53:56.305Z,9.10
2022-12-25T19:56:00.923Z,9.10
2022-12-25T19:58:02.479Z,9.10
2022-12-25T20:00:04.282Z,9.10
2022-12-25T20:02:06.625Z,9.10
2022-12-25T20:04:09.695Z,9.10
2022-12-25T20:06:18.764Z,9.10
2022-12-25T20:08:20.586Z,9.00
2022-12-25T20:10:22.214Z,9.10
2022-12-25T20:12:23.844Z,9.10
2022-12-25T20:14:25.576Z,9.10
2022-12-25T20:16:27.270Z,9.10
2022-12-25T20:18:29.237Z,9.10
2022-12-25T20:20:30.895Z,9.10
2022-12-25T20:22:32.512Z,9.00
2022-12-25T20:24:34.169Z,9.00
2022-12-25T20:26:36.069Z,9.00
2022-12-25T20:28:38.148Z,9.00
2022-12-25T20:30:39.912Z,8.90
2022-12-25T20:32:48.101Z,8.90
2022-12-25T20:34:51.883Z,8.90
2022-12-25T20:36:53.565Z,8.90
2022-12-25T20:38:55.243Z,8.80
2022-12-25T20:43:26.693Z,8.90
2022-12-25T20:45:28.269Z,8.80
2022-12-25T20:47:29.863Z,8.80
2022-12-25T20:49:32.497Z,8.80
2022-12-25T20:51:34.319Z,8.70
2022-12-25T20:53:36.233Z,8.70
2022-12-25T20:55:40.896Z,8.70
2022-12-25T20:57:43.577Z,8.70
2022-12-25T20:59:45.228Z,8.70
2022-12-25T21:01:47.680Z,8.70
2022-12-25T21:03:49.516Z,8.60
2022-12-25T21:05:55.088Z,8.60
2022-12-25T21:07:56.868Z,8.60
2022-12-25T21:09:59.351Z,8.60
2022-12-25T21:12:01.021Z,8.60
2022-12-25T21:14:02.687Z,8.50
2022-12-25T21:16:05.445Z,8.60
2022-12-25T21:18:07.048Z,8.50
2022-12-25T21:20:08.752Z,8.60
2022-12-25T21:22:10.440Z,8.70
2022-12-25T21:24:12.119Z,8.60
2022-12-25T21:26:19.034Z,8.70
2022-12-25T21:28:21.275Z,8.70
2022-12-25T21:30:22.870Z,8.80
2022-12-25T21:32:43.347Z,8.80
2022-12-25T21:34:47.630Z,8.80
2022-12-25T21:36:49.231Z,8.90
2022-12-25T21:39:05.151Z,9.00
2022-12-25T21:41:07.914Z,9.10
2022-12-25T21:43:10.824Z,9.30
2022-12-25T21:45:12.431Z,9.40
2022-12-25T21:47:14.059Z,9.40
2022-12-25T21:49:35.579Z,9.40
2022-12-25T21:51:55.622Z,9.50
2022-12-25T21:53:57.503Z,9.40
2022-12-25T21:56:00.824Z,9.50
2022-12-25T21:58:02.730Z,9.40
2022-12-25T22:00:05.843Z,9.40
2022-12-25T22:02:11.340Z,9.60
2022-12-25T22:04:14.075Z,9.60
2022-12-25T22:06:35.674Z,9.60
2022-12-25T22:08:37.289Z,9.60
2022-12-25T22:10:39.059Z,9.60
2022-12-25T22:13:09.355Z,9.50
2022-12-25T22:15:11.446Z,9.60
2022-12-25T22:17:32.040Z,9.60
2022-12-25T22:19:48.070Z,9.70
2022-12-25T22:21:49.692Z,9.60
2022-12-25T22:23:52.473Z,9.60
2022-12-25T22:25:54.053Z,9.70
2022-12-25T22:27:55.733Z,9.70
2022-12-25T22:29:57.297Z,9.90
2022-12-25T22:31:58.912Z,10.10
2022-12-25T22:34:02.997Z,10.20
2022-12-25T22:36:05.481Z,10.40
2022-12-25T22:38:07.072Z,10.50
2022-12-25T22:40:10.155Z,10.40
2022-12-25T22:42:12.437Z,10.40
2022-12-25T22:44:17.544Z,10.40
2022-12-25T22:46:19.658Z,10.40
2022-12-25T22:48:21.500Z,10.40
2022-12-25T22:50:23.250Z,10.20
2022-12-25T22:52:25.213Z,10.20
2022-12-25T22:54:28.956Z,10.10
2022-12-25T22:56:30.792Z,10.10
2022-12-25T22:58:32.465Z,10.00
2022-12-25T23:00:34.038Z,9.90
2022-12-25T23:02:35.950Z,9.80
2022-12-25T23:04:37.671Z,9.80
2022-12-25T23:06:39.647Z,9.70
2022-12-25T23:08:41.255Z,9.60
2022-12-25T23:10:42.818Z,9.50
2022-12-25T23:13:03.039Z,9.50
2022-12-25T23:15:05.164Z,9.40
2022-12-25T23:17:28.215Z,9.40
2022-12-25T23:19:48.354Z,9.30
2022-12-25T23:22:08.491Z,9.30
2022-12-25T23:24:28.614Z,9.30
2022-12-25T23:26:31.341Z,9.20
2022-12-25T23:28:52.185Z,9.20
2022-12-25T23:30:54.599Z,9.10
2022-12-25T23:32:56.409Z,9.00
2022-12-25T23:34:58.060Z,9.00
2022-12-25T23:36:59.863Z,9.00
2022-12-25T23:39:09.146Z,9.00
2022-12-25T23:41:11.822Z,8.90
2022-12-25T23:43:13.569Z,8.80
2022-12-25T23:45:15.380Z,8.80
2022-12-25T23:47:17.107Z,8.70
2022-12-25T23:49:18.937Z,8.70
2022-12-25T23:51:20.613Z,8.70
2022-12-25T23:53:22.297Z,8.70
2022-12-25T23:55:23.966Z,8.60
2022-12-25T23:57:25.628Z,8.60
2022-12-25T23:59:29.117Z,8.60
